NCAR-RAP Real-Time Weather Data

Output produced by METARs form (20 April 2014  16:19 UTC)
found at http://weather.rap.ucar.edu/surface/
 
Conditions at: K4O4 observed 20 April 2014  16:21 UTC
Temperature: 23.0°C (73°F)
Dewpoint: 13.0°C (55°F) [RH = 53%]
Pressure (altimeter): 30.18 inches Hg (1022.1 mb)
Winds: from the WSW (240 degrees) at 3 MPH (3 knots; 1.6 m/s)
Visibility: 10 or more miles (16+ km)
Ceiling: at least 12,000 feet AGL
Clouds: scattered clouds at 6000 feet AGL
Present Weather: automated observation with no human augmentation;
there may or may not be significant weather present at this time
K4O4 201621Z AUTO 24003KT 10SM SCT060 23/13 A3018 RMK AO2